createdAt,value
2017-11-12T00:01:16.294Z,93.88
2017-11-12T00:03:42.084Z,94.06
2017-11-12T00:06:07.860Z,94.20
2017-11-12T00:08:33.682Z,94.27
2017-11-12T00:10:59.498Z,94.01
2017-11-12T00:13:25.279Z,94.25
2017-11-12T00:15:51.082Z,94.21
2017-11-12T00:18:16.893Z,93.93
2017-11-12T00:20:42.681Z,94.21
2017-11-12T00:23:08.474Z,94.20
2017-11-12T00:25:34.789Z,94.16
2017-11-12T00:28:00.584Z,94.51
2017-11-12T00:30:26.382Z,94.33
2017-11-12T00:32:52.202Z,94.28
2017-11-12T00:35:17.995Z,94.22
2017-11-12T00:37:43.793Z,94.18
2017-11-12T00:40:09.584Z,93.85
2017-11-12T00:42:35.382Z,93.98
2017-11-12T00:45:02.008Z,93.94
2017-11-12T00:47:27.790Z,94.08
2017-11-12T00:49:53.577Z,93.83
2017-11-12T00:52:19.396Z,93.77
2017-11-12T00:54:45.190Z,93.70
2017-11-12T00:57:10.973Z,93.85
2017-11-12T00:59:36.781Z,93.62
2017-11-12T01:02:02.571Z,93.78
2017-11-12T01:04:29.223Z,93.62
2017-11-12T01:06:54.996Z,93.57
2017-11-12T01:09:20.783Z,93.49
2017-11-12T01:11:46.581Z,93.72
2017-11-12T01:14:12.379Z,93.69
2017-11-12T01:16:38.164Z,93.72
2017-11-12T01:19:03.975Z,93.69
2017-11-12T01:21:29.763Z,93.71
2017-11-12T01:23:55.544Z,93.70
2017-11-12T01:26:21.358Z,93.72
2017-11-12T01:28:47.157Z,93.48
2017-11-12T01:31:12.948Z,93.42
2017-11-12T01:33:38.860Z,93.39
2017-11-12T01:36:04.665Z,93.51
2017-11-12T01:38:30.479Z,93.41
2017-11-12T01:40:56.325Z,93.24
2017-11-12T01:43:22.149Z,93.29
2017-11-12T01:45:47.932Z,93.13
2017-11-12T01:48:13.767Z,93.18
2017-11-12T01:50:39.573Z,93.04
2017-11-12T01:53:05.360Z,93.19
2017-11-12T01:55:31.149Z,92.92
2017-11-12T01:57:56.972Z,92.80
2017-11-12T02:00:22.765Z,92.90
2017-11-12T02:02:48.620Z,92.92
2017-11-12T02:05:14.453Z,93.22
2017-11-12T02:07:40.295Z,93.13
2017-11-12T02:10:06.096Z,93.14
2017-11-12T02:12:31.889Z,92.99
2017-11-12T02:14:57.712Z,93.12
2017-11-12T02:17:23.500Z,93.13
2017-11-12T02:19:49.388Z,93.15
2017-11-12T02:22:15.397Z,93.35
2017-11-12T02:24:41.264Z,93.26
2017-11-12T02:27:07.483Z,93.17
2017-11-12T02:29:34.189Z,93.14
2017-11-12T02:31:59.996Z,93.21
2017-11-12T02:34:25.812Z,93.19
2017-11-12T02:36:51.670Z,93.03
2017-11-12T02:39:17.493Z,93.20
2017-11-12T02:41:43.316Z,93.33
2017-11-12T02:44:09.195Z,93.40
2017-11-12T02:46:35.021Z,93.34
2017-11-12T02:49:00.823Z,93.37
2017-11-12T02:51:26.621Z,93.44
2017-11-12T02:53:52.445Z,93.37
2017-11-12T02:56:18.305Z,93.41
2017-11-12T02:58:44.121Z,93.34
2017-11-12T03:01:09.913Z,93.33
2017-11-12T03:03:35.728Z,93.31
2017-11-12T03:06:01.524Z,93.33
2017-11-12T03:08:27.331Z,93.17
2017-11-12T03:10:53.172Z,93.10
2017-11-12T03:13:18.954Z,92.96
2017-11-12T03:15:44.746Z,93.35
2017-11-12T03:18:10.748Z,92.76
2017-11-12T03:20:36.564Z,92.80
2017-11-12T03:23:02.426Z,92.87
2017-11-12T03:25:28.240Z,92.77
2017-11-12T03:27:54.092Z,92.47
2017-11-12T03:30:19.940Z,92.54
2017-11-12T03:32:45.781Z,92.35
2017-11-12T03:35:11.600Z,92.33
2017-11-12T03:37:37.377Z,93.05
2017-11-12T03:40:03.273Z,93.36
2017-11-12T03:42:29.052Z,94.02
2017-11-12T03:44:54.863Z,93.78
2017-11-12T03:47:20.708Z,94.04
2017-11-12T03:49:46.488Z,93.58
2017-11-12T03:52:12.328Z,93.57
2017-11-12T03:54:38.148Z,93.53
2017-11-12T03:57:03.951Z,93.76
2017-11-12T03:59:29.738Z,93.77
2017-11-12T04:01:55.565Z,93.34
2017-11-12T04:04:21.370Z,93.47
2017-11-12T04:06:47.171Z,93.35
2017-11-12T04:09:13.065Z,93.27
2017-11-12T04:11:38.849Z,93.71
2017-11-12T04:14:04.649Z,93.45
2017-11-12T04:16:30.461Z,93.34
2017-11-12T04:18:56.255Z,93.41
2017-11-12T04:21:22.047Z,93.18
2017-11-12T04:23:47.868Z,93.20
2017-11-12T04:26:13.652Z,93.21
2017-11-12T04:28:39.434Z,93.16
2017-11-12T04:31:05.225Z,93.28
2017-11-12T04:33:31.028Z,93.10
2017-11-12T04:35:56.834Z,92.92
2017-11-12T04:38:22.627Z,93.01
2017-11-12T04:40:48.416Z,93.52
2017-11-12T04:43:14.234Z,93.68
2017-11-12T04:45:40.053Z,93.97
2017-11-12T04:48:05.849Z,94.10
2017-11-12T04:50:31.633Z,94.06
2017-11-12T04:52:57.901Z,94.01
2017-11-12T04:55:23.705Z,94.21
2017-11-12T04:57:49.496Z,94.25
2017-11-12T05:00:15.617Z,93.91
2017-11-12T05:02:41.424Z,94.04
2017-11-12T05:05:07.249Z,93.48
2017-11-12T05:07:33.051Z,93.25
2017-11-12T05:09:58.842Z,93.29
2017-11-12T05:12:25.482Z,93.15
2017-11-12T05:14:51.275Z,93.20
2017-11-12T05:17:17.045Z,93.06
2017-11-12T05:19:43.207Z,92.97
2017-11-12T05:22:09.000Z,92.85
2017-11-12T05:24:34.775Z,92.61
2017-11-12T05:27:00.603Z,92.65
2017-11-12T05:29:26.394Z,92.58
2017-11-12T05:31:52.185Z,92.81
2017-11-12T05:34:18.324Z,92.40
2017-11-12T05:36:44.104Z,92.25
2017-11-12T05:39:09.944Z,92.38
2017-11-12T05:41:35.744Z,92.42
2017-11-12T05:44:01.536Z,92.38
2017-11-12T05:46:27.362Z,92.50
2017-11-12T05:48:53.157Z,92.14
2017-11-12T05:51:18.940Z,92.55
2017-11-12T05:53:44.963Z,92.02
2017-11-12T05:56:10.757Z,92.41
2017-11-12T05:58:36.577Z,92.22
2017-11-12T06:01:02.387Z,91.82
2017-11-12T06:03:28.188Z,91.69
2017-11-12T06:05:54.001Z,91.94
2017-11-12T06:08:19.810Z,91.62
2017-11-12T06:10:45.643Z,91.58
2017-11-12T06:13:11.425Z,91.57
2017-11-12T06:15:37.252Z,91.46
2017-11-12T06:18:03.080Z,91.27
2017-11-12T06:20:28.901Z,90.90
2017-11-12T06:22:54.740Z,91.32
2017-11-12T06:25:20.534Z,91.27
2017-11-12T06:27:46.340Z,91.87
2017-11-12T06:30:12.124Z,91.78
2017-11-12T06:32:37.905Z,91.68
2017-11-12T06:35:03.728Z,91.77
2017-11-12T06:37:29.508Z,91.81
2017-11-12T06:39:55.331Z,91.48
2017-11-12T06:42:21.125Z,91.81
2017-11-12T06:44:46.915Z,91.81
2017-11-12T06:47:13.083Z,91.63
2017-11-12T06:49:38.877Z,91.24
2017-11-12T06:52:04.671Z,91.58
2017-11-12T06:54:30.472Z,91.43
2017-11-12T06:56:56.253Z,91.46
2017-11-12T06:59:22.048Z,91.10
2017-11-12T07:01:47.847Z,91.38
2017-11-12T07:04:13.633Z,91.24
2017-11-12T07:06:39.428Z,91.56
2017-11-12T07:09:05.261Z,91.48
2017-11-12T07:11:31.050Z,91.51
2017-11-12T07:13:56.836Z,91.84
2017-11-12T07:16:22.668Z,91.30
2017-11-12T07:18:48.481Z,90.95
2017-11-12T07:21:14.264Z,90.79
2017-11-12T07:23:40.068Z,90.50
2017-11-12T07:26:05.866Z,90.07
2017-11-12T07:28:31.655Z,90.56
2017-11-12T07:30:57.610Z,90.78
2017-11-12T07:33:23.399Z,90.33
2017-11-12T07:35:49.192Z,91.24
2017-11-12T07:38:14.995Z,91.64
2017-11-12T07:40:40.785Z,91.12
2017-11-12T07:43:06.615Z,91.42
2017-11-12T07:45:32.417Z,90.87
2017-11-12T07:47:58.229Z,90.94
2017-11-12T07:50:24.018Z,91.18
2017-11-12T07:52:50.166Z,91.45
2017-11-12T07:55:15.972Z,91.36
2017-11-12T07:57:41.810Z,91.07
2017-11-12T08:00:07.745Z,90.62
2017-11-12T08:02:33.560Z,90.41
2017-11-12T08:04:59.355Z,91.07
2017-11-12T08:07:25.245Z,90.35
2017-11-12T08:09:51.037Z,90.82
2017-11-12T08:12:16.854Z,91.28
2017-11-12T08:14:42.903Z,91.12
2017-11-12T08:17:08.701Z,91.32
2017-11-12T08:19:34.488Z,91.35
2017-11-12T08:22:00.305Z,91.14
2017-11-12T08:24:26.132Z,91.60
2017-11-12T08:26:51.931Z,90.95
2017-11-12T08:29:17.724Z,90.61
2017-11-12T08:31:43.513Z,91.15
2017-11-12T08:34:09.305Z,90.35
2017-11-12T08:36:35.157Z,90.43
2017-11-12T08:39:00.985Z,90.62
2017-11-12T08:41:26.764Z,90.51
2017-11-12T08:43:52.689Z,89.94
2017-11-12T08:46:18.531Z,89.68
2017-11-12T08:48:44.381Z,89.81
2017-11-12T08:51:10.512Z,89.88
2017-11-12T08:53:36.331Z,89.45
2017-11-12T08:56:02.177Z,89.45
2017-11-12T08:58:28.197Z,89.69
2017-11-12T09:00:53.992Z,89.48
2017-11-12T09:03:19.785Z,89.23
2017-11-12T09:05:45.935Z,88.83
2017-11-12T09:08:11.727Z,88.82
2017-11-12T09:10:37.512Z,89.18
2017-11-12T09:13:03.318Z,88.80
2017-11-12T09:15:29.114Z,88.25
2017-11-12T09:17:54.950Z,88.24
2017-11-12T09:20:20.745Z,88.55
2017-11-12T09:22:46.529Z,88.63
2017-11-12T09:25:12.595Z,88.36
2017-11-12T09:27:38.397Z,88.15
2017-11-12T09:30:04.198Z,87.59
2017-11-12T09:32:30.027Z,87.86
2017-11-12T09:34:55.835Z,88.30
2017-11-12T09:37:21.640Z,88.35
2017-11-12T09:39:47.432Z,88.62
2017-11-12T09:42:13.229Z,88.17
2017-11-12T09:44:39.340Z,88.90
2017-11-12T09:47:05.147Z,87.90
2017-11-12T09:49:30.941Z,87.81
2017-11-12T09:51:57.567Z,88.08
2017-11-12T09:54:23.375Z,87.72
2017-11-12T09:56:49.191Z,87.68
2017-11-12T09:59:15.018Z,86.70
2017-11-12T10:01:40.825Z,87.78
2017-11-12T10:04:06.619Z,87.73
2017-11-12T10:06:33.238Z,87.84
2017-11-12T10:08:59.032Z,87.62
2017-11-12T10:11:24.812Z,87.19
2017-11-12T10:13:50.609Z,87.76
2017-11-12T10:16:16.401Z,88.85
2017-11-12T10:18:42.172Z,88.13
2017-11-12T10:21:08.159Z,87.72
2017-11-12T10:23:33.949Z,88.09
2017-11-12T10:25:59.729Z,87.39
2017-11-12T10:28:25.800Z,87.86
2017-11-12T10:30:51.590Z,86.77
2017-11-12T10:33:17.373Z,87.16
2017-11-12T10:35:43.477Z,87.09
2017-11-12T10:38:09.259Z,86.24
2017-11-12T10:40:35.056Z,86.41
2017-11-12T10:43:00.870Z,87.46
2017-11-12T10:45:26.669Z,86.58
2017-11-12T10:47:52.481Z,86.43
2017-11-12T10:50:18.306Z,85.80
2017-11-12T10:52:44.085Z,85.65
2017-11-12T10:55:09.870Z,86.31
2017-11-12T10:57:35.701Z,86.44
2017-11-12T11:00:01.495Z,86.34
2017-11-12T11:02:27.281Z,86.11
2017-11-12T11:04:53.105Z,85.86
2017-11-12T11:07:18.900Z,85.79
2017-11-12T11:09:44.680Z,85.84
2017-11-12T11:12:10.476Z,85.47
2017-11-12T11:14:36.435Z,86.22
2017-11-12T11:17:02.481Z,86.33
2017-11-12T11:19:28.278Z,85.33
2017-11-12T11:21:54.060Z,85.36
2017-11-12T11:24:20.148Z,85.04
2017-11-12T11:26:45.940Z,85.23
2017-11-12T11:29:11.734Z,86.27
2017-11-12T11:31:37.541Z,85.75
2017-11-12T11:34:03.354Z,85.26
2017-11-12T11:36:29.136Z,84.82
2017-11-12T11:38:55.789Z,85.23
2017-11-12T11:41:21.580Z,84.59
2017-11-12T11:43:47.372Z,84.56
2017-11-12T11:46:13.166Z,84.23
2017-11-12T11:48:38.956Z,84.44
2017-11-12T11:51:04.744Z,84.22
2017-11-12T11:53:30.585Z,83.74
2017-11-12T11:55:56.416Z,83.80
2017-11-12T11:58:22.226Z,83.79
2017-11-12T12:00:48.038Z,83.33
2017-11-12T12:03:13.861Z,83.04
2017-11-12T12:05:39.684Z,83.49
2017-11-12T12:08:05.476Z,82.80
2017-11-12T12:10:31.275Z,83.12
2017-11-12T12:12:57.092Z,83.58
2017-11-12T12:15:22.872Z,83.40
2017-11-12T12:17:48.669Z,84.19
2017-11-12T12:20:14.481Z,82.16
2017-11-12T12:22:40.251Z,83.77
2017-11-12T12:25:06.047Z,82.84
2017-11-12T12:27:31.878Z,82.73
2017-11-12T12:29:57.665Z,83.12
2017-11-12T12:32:23.450Z,83.88
2017-11-12T12:34:49.285Z,83.33
2017-11-12T12:37:15.073Z,83.32
2017-11-12T12:39:40.865Z,83.03
2017-11-12T12:42:06.701Z,82.22
2017-11-12T12:44:32.525Z,81.83
2017-11-12T12:46:58.340Z,83.09
2017-11-12T12:49:24.487Z,83.04
2017-11-12T12:51:50.284Z,84.01
2017-11-12T12:54:16.098Z,84.29
2017-11-12T12:56:41.914Z,83.43
2017-11-12T12:59:07.708Z,83.58
2017-11-12T13:01:33.508Z,83.68
2017-11-12T13:04:00.334Z,83.32
2017-11-12T13:06:26.154Z,84.25
2017-11-12T13:08:51.933Z,83.54
2017-11-12T13:11:17.772Z,83.00
2017-11-12T13:13:43.578Z,81.12
2017-11-12T13:16:09.369Z,80.86
2017-11-12T13:18:35.171Z,77.24
2017-11-12T13:21:00.993Z,75.58
2017-11-12T13:23:26.789Z,76.66
2017-11-12T13:25:52.572Z,74.48
2017-11-12T13:28:18.396Z,74.45
2017-11-12T13:30:44.196Z,73.43
2017-11-12T13:33:09.983Z,75.66
2017-11-12T13:35:35.834Z,75.49
2017-11-12T13:38:01.645Z,76.92
2017-11-12T13:40:27.436Z,72.20
2017-11-12T13:42:53.269Z,76.18
2017-11-12T13:45:19.106Z,77.67
2017-11-12T13:47:44.925Z,78.24
2017-11-12T13:50:10.716Z,76.96
2017-11-12T13:52:36.506Z,77.63
2017-11-12T13:55:02.315Z,79.49
2017-11-12T13:57:28.092Z,78.79
2017-11-12T13:59:53.876Z,79.21
2017-11-12T14:02:19.696Z,78.67
2017-11-12T14:04:46.296Z,76.85
2017-11-12T14:07:12.081Z,75.30
2017-11-12T14:09:37.921Z,74.51
2017-11-12T14:12:03.734Z,76.99
2017-11-12T14:16:55.236Z,78.25
2017-11-12T14:19:21.022Z,77.46
2017-11-12T14:21:46.825Z,75.00
2017-11-12T14:24:13.553Z,76.07
2017-11-12T14:26:39.370Z,77.41
2017-11-12T14:29:05.164Z,76.20
2017-11-12T14:31:30.958Z,77.17
2017-11-12T14:33:56.748Z,78.75
2017-11-12T14:36:22.554Z,77.97
2017-11-12T14:38:48.365Z,77.27
2017-11-12T14:41:14.161Z,78.11
2017-11-12T14:43:40.220Z,78.65
2017-11-12T14:46:06.041Z,77.96
2017-11-12T14:48:31.856Z,78.58
2017-11-12T14:50:57.681Z,77.87
2017-11-12T14:53:23.453Z,79.22
2017-11-12T14:55:49.306Z,79.71
2017-11-12T14:58:15.127Z,78.43
2017-11-12T15:00:47.897Z,78.50
2017-11-12T15:03:14.640Z,78.16
2017-11-12T15:05:40.448Z,79.62
2017-11-12T15:08:06.253Z,80.94
2017-11-12T15:10:32.057Z,82.13
2017-11-12T15:12:57.857Z,82.44
2017-11-12T15:15:23.644Z,82.22
2017-11-12T15:17:49.764Z,82.69
2017-11-12T15:20:15.573Z,83.36
2017-11-12T15:22:41.369Z,82.49
2017-11-12T15:25:07.174Z,82.97
2017-11-12T15:27:32.954Z,82.62
2017-11-12T15:29:58.742Z,84.21
2017-11-12T15:32:24.537Z,82.87
2017-11-12T15:34:50.327Z,83.52
2017-11-12T15:37:16.118Z,83.82
2017-11-12T15:39:41.905Z,84.55
2017-11-12T15:42:07.692Z,84.92
2017-11-12T15:44:33.485Z,84.29
2017-11-12T15:46:59.356Z,84.54
2017-11-12T15:49:25.168Z,85.93
2017-11-12T15:54:23.574Z,84.55
2017-11-12T15:56:49.365Z,85.19
2017-11-12T15:59:15.150Z,84.60
2017-11-12T16:01:40.950Z,83.89
2017-11-12T16:04:06.744Z,84.40
2017-11-12T16:06:32.566Z,85.05
2017-11-12T16:08:58.357Z,85.82
2017-11-12T16:11:24.205Z,86.30
2017-11-12T16:13:50.542Z,85.16
2017-11-12T16:16:16.352Z,85.90
2017-11-12T16:18:42.149Z,86.03
2017-11-12T16:21:07.971Z,86.23
2017-11-12T16:23:33.745Z,86.37
2017-11-12T16:25:59.531Z,86.96
2017-11-12T16:28:25.337Z,85.91
2017-11-12T16:30:51.140Z,85.84
2017-11-12T16:33:16.924Z,85.14
2017-11-12T16:35:42.759Z,84.83
2017-11-12T16:38:08.565Z,85.77
2017-11-12T16:40:41.440Z,84.78
2017-11-12T16:43:07.234Z,84.69
2017-11-12T16:45:33.025Z,85.62
2017-11-12T16:47:58.859Z,85.18
2017-11-12T16:50:24.760Z,86.56
2017-11-12T16:52:50.558Z,85.02
2017-11-12T16:55:16.361Z,85.17
2017-11-12T16:57:42.170Z,85.56
2017-11-12T17:00:07.957Z,85.70
2017-11-12T17:02:34.753Z,85.48
2017-11-12T17:05:00.548Z,85.55
2017-11-12T17:07:26.348Z,85.17
2017-11-12T17:09:52.161Z,85.00
2017-11-12T17:12:17.955Z,84.78
2017-11-12T17:14:43.790Z,85.82
2017-11-12T17:17:09.612Z,85.71
2017-11-12T17:19:35.507Z,86.66
2017-11-12T17:22:01.289Z,86.49
2017-11-12T17:24:27.102Z,86.56
2017-11-12T17:26:52.885Z,86.41
2017-11-12T17:29:18.678Z,87.25
2017-11-12T17:31:44.589Z,86.85
2017-11-12T17:34:10.400Z,86.29
2017-11-12T17:36:36.185Z,86.21
2017-11-12T17:39:02.220Z,86.15
2017-11-12T17:41:28.017Z,86.32
2017-11-12T17:43:53.806Z,86.32
2017-11-12T17:46:19.606Z,86.40
2017-11-12T17:48:45.382Z,87.29
2017-11-12T17:51:11.183Z,86.81
2017-11-12T17:53:37.008Z,87.86
2017-11-12T17:56:02.829Z,87.91
2017-11-12T17:58:28.626Z,86.94
2017-11-12T18:00:54.628Z,87.78
2017-11-12T18:03:20.421Z,88.19
2017-11-12T18:05:46.226Z,88.38
2017-11-12T18:08:12.398Z,88.57
2017-11-12T18:10:38.194Z,88.84
2017-11-12T18:13:04.021Z,88.32
2017-11-12T18:15:29.830Z,88.11
2017-11-12T18:17:55.637Z,87.95
2017-11-12T18:20:21.453Z,87.82
2017-11-12T18:22:47.370Z,87.84
2017-11-12T18:25:13.202Z,88.23
2017-11-12T18:27:39.004Z,88.55
2017-11-12T18:30:05.473Z,88.56
2017-11-12T18:32:31.283Z,88.99
2017-11-12T18:34:57.077Z,89.09
2017-11-12T18:37:22.885Z,88.40
2017-11-12T18:39:48.723Z,88.80
2017-11-12T18:42:14.550Z,89.14
2017-11-12T18:44:41.208Z,88.51
2017-11-12T18:47:07.041Z,88.63
2017-11-12T18:49:32.902Z,87.69
2017-11-12T18:51:58.721Z,87.27
2017-11-12T18:54:26.335Z,87.36
2017-11-12T18:57:02.207Z,87.63
2017-11-12T18:59:30.850Z,87.76
2017-11-12T19:02:02.791Z,87.96
2017-11-12T19:04:28.615Z,88.66
2017-11-12T19:09:58.606Z,85.21
2017-11-12T19:12:24.472Z,86.14
2017-11-12T19:14:50.332Z,88.01
2017-11-12T19:17:16.169Z,87.95
2017-11-12T19:19:49.237Z,88.34
2017-11-12T19:22:25.028Z,88.69
2017-11-12T19:24:53.727Z,88.45
2017-11-12T19:27:25.737Z,87.83
2017-11-12T19:29:54.316Z,88.13
2017-11-12T19:32:20.170Z,86.98
2017-11-12T19:34:47.015Z,87.26
2017-11-12T19:37:12.874Z,88.10
2017-11-12T19:39:38.700Z,88.15
2017-11-12T19:42:04.526Z,88.17
2017-11-12T19:44:30.384Z,89.54
2017-11-12T19:46:56.221Z,89.25
2017-11-12T19:49:22.050Z,89.52
2017-11-12T19:51:48.229Z,89.45
2017-11-12T19:54:14.144Z,89.57
2017-11-12T19:56:40.007Z,89.22
2017-11-12T19:59:05.918Z,89.83
2017-11-12T20:01:31.816Z,89.69
2017-11-12T20:03:57.654Z,89.84
2017-11-12T20:06:23.544Z,90.13
2017-11-12T20:08:49.405Z,90.43
2017-11-12T20:11:15.240Z,90.45
2017-11-12T20:13:41.133Z,90.68
2017-11-12T20:16:07.006Z,90.66
2017-11-12T20:18:32.880Z,89.38
2017-11-12T20:20:59.180Z,90.02
2017-11-12T20:23:25.547Z,89.79
2017-11-12T20:25:51.356Z,89.96
2017-11-12T20:28:17.351Z,90.30
2017-11-12T20:30:43.175Z,91.30
2017-11-12T20:33:09.018Z,91.46
2017-11-12T20:35:34.845Z,91.48
2017-11-12T20:38:00.959Z,91.90
2017-11-12T20:40:26.800Z,91.95
2017-11-12T20:42:52.626Z,91.96
2017-11-12T20:45:18.453Z,92.44
2017-11-12T20:47:44.301Z,92.72
2017-11-12T20:50:10.147Z,92.87
2017-11-12T20:52:35.970Z,92.63
2017-11-12T20:55:04.831Z,93.39
2017-11-12T20:57:30.649Z,93.04
2017-11-12T20:59:56.467Z,93.15
2017-11-12T21:02:22.300Z,93.43
2017-11-12T21:04:48.134Z,93.25
2017-11-12T21:07:13.941Z,93.33
2017-11-12T21:09:39.748Z,93.39
2017-11-12T21:12:05.578Z,93.58
2017-11-12T21:14:31.386Z,93.80
2017-11-12T21:16:57.212Z,93.78
2017-11-12T21:19:25.347Z,93.50
2017-11-12T21:24:50.865Z,93.51
2017-11-12T21:27:20.700Z,93.92
2017-11-12T21:29:50.568Z,94.10
2017-11-12T21:32:23.172Z,94.49
2017-11-12T21:34:52.801Z,94.00
2017-11-12T21:40:18.626Z,94.45
2017-11-12T21:42:44.436Z,94.49
2017-11-12T21:45:10.248Z,94.50
2017-11-12T21:47:36.050Z,94.92
2017-11-12T21:50:01.880Z,94.87
2017-11-12T21:52:27.681Z,94.23
2017-11-12T21:54:53.464Z,94.76
2017-11-12T21:57:19.245Z,94.67
2017-11-12T21:59:45.060Z,94.62
2017-11-12T22:02:10.905Z,94.28
2017-11-12T22:04:36.708Z,94.23
2017-11-12T22:07:02.511Z,94.60
2017-11-12T22:09:28.418Z,93.97
2017-11-12T22:11:54.195Z,93.78
2017-11-12T22:14:19.975Z,94.17
2017-11-12T22:16:45.783Z,94.39
2017-11-12T22:19:11.581Z,94.21
2017-11-12T22:21:37.382Z,94.01
2017-11-12T22:24:03.227Z,94.00
2017-11-12T22:26:29.019Z,93.92
2017-11-12T22:28:54.813Z,93.97
2017-11-12T22:31:20.653Z,94.25
2017-11-12T22:33:46.441Z,93.98
2017-11-12T22:36:12.228Z,94.38
2017-11-12T22:38:38.025Z,94.58
2017-11-12T22:41:03.817Z,94.54
2017-11-12T22:43:29.613Z,94.71
2017-11-12T22:45:55.421Z,94.55
2017-11-12T22:48:21.220Z,94.65
2017-11-12T22:50:47.013Z,95.03
2017-11-12T22:53:12.817Z,94.79
2017-11-12T22:55:38.594Z,95.10
2017-11-12T22:58:04.417Z,95.09
2017-11-12T23:00:30.260Z,94.70
2017-11-12T23:02:56.049Z,94.73
2017-11-12T23:05:21.828Z,95.22
2017-11-12T23:07:47.612Z,95.06
2017-11-12T23:10:13.400Z,94.98
2017-11-12T23:12:39.193Z,95.15
2017-11-12T23:15:04.977Z,95.02
2017-11-12T23:17:30.766Z,95.37
2017-11-12T23:19:56.605Z,95.42
2017-11-12T23:22:22.404Z,95.38
2017-11-12T23:24:48.194Z,95.27
2017-11-12T23:27:14.308Z,95.04
2017-11-12T23:29:40.086Z,95.07
2017-11-12T23:32:05.873Z,94.68
2017-11-12T23:34:31.872Z,94.98
2017-11-12T23:36:57.657Z,94.71
2017-11-12T23:39:23.462Z,94.82
2017-11-12T23:41:49.261Z,94.71
2017-11-12T23:44:15.063Z,94.87
2017-11-12T23:46:40.859Z,95.10
2017-11-12T23:49:06.669Z,94.76
2017-11-12T23:51:32.444Z,94.56
2017-11-12T23:53:58.230Z,94.82
2017-11-12T23:56:24.062Z,94.70
2017-11-12T23:58:49.861Z,94.68
